createdAt,value
2019-04-06T00:02:11.051Z,99.90
2019-04-06T00:04:39.459Z,99.90
2019-04-06T00:07:07.850Z,99.90
2019-04-06T00:09:36.254Z,99.90
2019-04-06T00:12:04.713Z,99.90
2019-04-06T00:14:33.112Z,99.90
2019-04-06T00:17:01.518Z,99.90
2019-04-06T00:19:30.358Z,99.90
2019-04-06T00:21:58.752Z,99.90
2019-04-06T00:24:27.146Z,99.90
2019-04-06T00:26:55.554Z,99.90
2019-04-06T00:29:23.962Z,99.90
2019-04-06T00:31:54.034Z,99.90
2019-04-06T00:34:22.494Z,99.90
2019-04-06T00:36:50.976Z,99.90
2019-04-06T00:39:19.406Z,99.90
2019-04-06T00:41:47.811Z,99.90
2019-04-06T00:44:16.907Z,99.90
2019-04-06T00:46:45.486Z,99.90
2019-04-06T00:49:13.940Z,99.90
2019-04-06T00:51:42.346Z,99.90
2019-04-06T00:54:10.743Z,99.90
2019-04-06T00:56:39.172Z,99.90
2019-04-06T00:59:07.653Z,99.90
2019-04-06T01:01:36.046Z,99.90
2019-04-06T01:04:04.629Z,99.90
2019-04-06T01:06:33.088Z,99.90
2019-04-06T01:09:01.507Z,99.90
2019-04-06T01:11:30.005Z,99.90
2019-04-06T01:13:58.418Z,99.90
2019-04-06T01:16:26.818Z,99.90
2019-04-06T01:18:55.237Z,99.90
2019-04-06T01:21:23.638Z,99.90
2019-04-06T01:23:52.030Z,99.90
2019-04-06T01:26:20.435Z,99.90
2019-04-06T01:28:48.847Z,99.90
2019-04-06T01:31:17.234Z,99.90
2019-04-06T01:33:45.638Z,99.90
2019-04-06T01:36:14.037Z,99.90
2019-04-06T01:38:42.523Z,99.90
2019-04-06T01:41:10.936Z,99.90
2019-04-06T01:43:39.346Z,99.90
2019-04-06T01:46:07.749Z,99.90
2019-04-06T01:48:36.170Z,99.90
2019-04-06T01:51:04.568Z,99.90
2019-04-06T01:53:32.964Z,99.90
2019-04-06T01:56:21.063Z,99.90
2019-04-06T01:58:56.402Z,99.90
2019-04-06T02:01:26.500Z,99.90
2019-04-06T02:03:54.882Z,99.90
2019-04-06T02:06:23.432Z,99.90
2019-04-06T02:08:51.863Z,99.90
2019-04-06T02:11:20.330Z,99.90
2019-04-06T02:13:48.807Z,99.90
2019-04-06T02:16:17.199Z,99.90
2019-04-06T02:18:45.599Z,99.90
2019-04-06T02:21:14.272Z,99.90
2019-04-06T02:23:42.671Z,99.90
2019-04-06T02:26:11.071Z,99.90
2019-04-06T02:28:39.482Z,99.90
2019-04-06T02:31:15.570Z,99.90
2019-04-06T02:33:48.356Z,99.90
2019-04-06T02:36:18.570Z,99.90
2019-04-06T02:38:54.459Z,99.90
2019-04-06T02:41:24.487Z,99.90
2019-04-06T02:43:52.879Z,99.90
2019-04-06T02:46:21.297Z,99.90
2019-04-06T02:48:49.783Z,99.90
2019-04-06T02:51:18.329Z,99.90
2019-04-06T02:53:46.842Z,99.90
2019-04-06T02:56:15.278Z,99.90
2019-04-06T02:58:43.666Z,99.90
2019-04-06T03:01:12.083Z,99.90
2019-04-06T03:03:40.483Z,99.90
2019-04-06T03:06:08.891Z,99.90
2019-04-06T03:08:37.601Z,99.90
2019-04-06T03:11:06.018Z,99.90
2019-04-06T03:13:34.768Z,99.90
2019-04-06T03:16:03.507Z,99.90
2019-04-06T03:18:31.908Z,99.90
2019-04-06T03:21:00.388Z,99.90
2019-04-06T03:23:29.057Z,99.90
2019-04-06T03:25:57.826Z,99.90
2019-04-06T03:28:26.262Z,99.90
2019-04-06T03:30:54.743Z,99.90
2019-04-06T03:33:23.657Z,99.90
2019-04-06T03:35:52.638Z,99.90
2019-04-06T03:38:21.154Z,99.90
2019-04-06T03:40:49.957Z,99.90
2019-04-06T03:43:18.395Z,99.90
2019-04-06T03:45:46.917Z,99.90
2019-04-06T03:48:15.523Z,99.90
2019-04-06T03:50:45.341Z,99.90
2019-04-06T03:53:13.824Z,99.90
2019-04-06T03:55:42.236Z,99.90
2019-04-06T03:58:10.732Z,99.90
2019-04-06T04:00:39.124Z,99.90
2019-04-06T04:03:07.527Z,99.90
2019-04-06T04:05:36.051Z,99.90
2019-04-06T04:08:04.444Z,99.90
2019-04-06T04:10:35.522Z,99.90
2019-04-06T04:13:04.290Z,99.90
2019-04-06T04:15:32.939Z,99.90
2019-04-06T04:18:01.424Z,99.90
2019-04-06T04:20:29.847Z,99.90
2019-04-06T04:22:58.247Z,99.90
2019-04-06T04:25:26.687Z,99.90
2019-04-06T04:27:55.210Z,99.90
2019-04-06T04:30:32.267Z,99.90
2019-04-06T04:32:53.761Z,99.90
2019-04-06T04:35:22.177Z,99.90
2019-04-06T04:37:50.598Z,99.90
2019-04-06T04:40:19.000Z,99.90
2019-04-06T04:42:47.428Z,99.90
2019-04-06T04:45:15.986Z,99.90
2019-04-06T04:47:44.394Z,99.90
2019-04-06T04:50:12.867Z,99.90
2019-04-06T04:52:41.602Z,99.90
2019-04-06T04:55:10.052Z,99.90
2019-04-06T04:57:40.856Z,99.90
2019-04-06T05:00:08.908Z,99.90
2019-04-06T05:02:37.825Z,99.90
2019-04-06T05:05:09.407Z,99.90
2019-04-06T05:07:37.900Z,99.90
2019-04-06T05:10:07.051Z,99.90
2019-04-06T05:12:35.492Z,99.90
2019-04-06T05:15:10.176Z,99.90
2019-04-06T05:17:38.597Z,99.90
2019-04-06T05:20:08.250Z,99.90
2019-04-06T05:22:36.695Z,99.90
2019-04-06T05:25:07.699Z,99.90
2019-04-06T05:27:36.223Z,99.90
2019-04-06T05:30:08.031Z,99.90
2019-04-06T05:32:36.444Z,99.90
2019-04-06T05:35:06.310Z,99.90
2019-04-06T05:37:34.785Z,99.90
2019-04-06T05:40:03.646Z,99.90
2019-04-06T05:42:32.630Z,99.90
2019-04-06T05:45:01.070Z,99.90
2019-04-06T05:47:29.494Z,99.90
2019-04-06T05:49:57.922Z,99.90
2019-04-06T05:52:26.319Z,99.90
2019-04-06T05:54:54.879Z,99.90
2019-04-06T05:57:23.419Z,99.90
2019-04-06T05:59:51.810Z,99.90
2019-04-06T06:02:20.351Z,99.90
2019-04-06T06:04:48.843Z,99.90
2019-04-06T06:07:17.366Z,99.90
2019-04-06T06:09:45.762Z,99.90
2019-04-06T06:12:14.830Z,99.90
2019-04-06T06:14:43.252Z,99.90
2019-04-06T06:17:11.654Z,99.90
2019-04-06T06:19:40.122Z,99.90
2019-04-06T06:22:08.678Z,99.90
2019-04-06T06:24:37.216Z,99.90
2019-04-06T06:27:05.613Z,99.90
2019-04-06T06:29:34.155Z,99.90
2019-04-06T06:32:02.558Z,99.90
2019-04-06T06:34:30.965Z,99.90
2019-04-06T06:36:59.373Z,99.90
2019-04-06T06:39:27.787Z,99.90
2019-04-06T06:41:56.187Z,99.90
2019-04-06T06:44:24.592Z,99.90
2019-04-06T06:46:53.159Z,99.90
2019-04-06T06:49:21.687Z,99.90
2019-04-06T06:51:50.099Z,99.90
2019-04-06T06:54:18.503Z,99.90
2019-04-06T06:56:46.917Z,99.90
2019-04-06T06:59:15.542Z,99.90
2019-04-06T07:01:44.051Z,99.90
2019-04-06T07:04:12.463Z,99.90
2019-04-06T07:06:41.157Z,99.90
2019-04-06T07:09:09.664Z,99.90
2019-04-06T07:11:38.043Z,99.90
2019-04-06T07:14:06.568Z,99.90
2019-04-06T07:16:35.492Z,99.90
2019-04-06T07:19:04.090Z,99.90
2019-04-06T07:21:32.565Z,99.90
2019-04-06T07:24:00.979Z,99.90
2019-04-06T07:26:29.387Z,99.90
2019-04-06T07:28:57.959Z,99.90
2019-04-06T07:31:26.373Z,99.90
2019-04-06T07:33:54.782Z,99.90
2019-04-06T07:36:23.305Z,99.90
2019-04-06T07:38:51.996Z,99.90
2019-04-06T07:41:20.374Z,99.90
2019-04-06T07:43:48.780Z,99.90
2019-04-06T07:46:17.283Z,99.90
2019-04-06T07:48:46.001Z,99.90
2019-04-06T07:51:14.772Z,99.90
2019-04-06T07:53:43.271Z,99.90
2019-04-06T07:56:11.962Z,99.90
2019-04-06T07:58:48.392Z,99.90
2019-04-06T08:01:10.473Z,99.90
2019-04-06T08:03:38.874Z,99.90
2019-04-06T08:06:07.271Z,99.90
2019-04-06T08:08:35.679Z,99.90
2019-04-06T08:11:04.235Z,99.90
2019-04-06T08:13:32.821Z,99.90
2019-04-06T08:16:01.347Z,99.90
2019-04-06T08:18:30.260Z,99.90
2019-04-06T08:20:58.755Z,99.90
2019-04-06T08:23:27.374Z,99.90
2019-04-06T08:25:56.348Z,99.60
2019-04-06T08:28:24.792Z,99.30
2019-04-06T08:30:53.190Z,98.70
2019-04-06T08:33:21.591Z,98.00
2019-04-06T08:35:50.278Z,97.00
2019-04-06T08:38:18.886Z,96.70
2019-04-06T08:40:47.575Z,96.30
2019-04-06T08:43:15.976Z,95.90
2019-04-06T08:45:44.453Z,95.10
2019-04-06T08:48:13.119Z,94.80
2019-04-06T08:50:41.563Z,94.60
2019-04-06T08:53:09.968Z,94.40
2019-04-06T08:55:38.382Z,93.80
2019-04-06T08:58:06.873Z,93.80
2019-04-06T09:00:35.655Z,93.80
2019-04-06T09:03:04.208Z,92.80
2019-04-06T09:05:32.895Z,92.40
2019-04-06T09:08:01.345Z,91.80
2019-04-06T09:10:30.026Z,91.10
2019-04-06T09:12:58.655Z,90.80
2019-04-06T09:15:27.056Z,90.80
2019-04-06T09:17:55.458Z,91.10
2019-04-06T09:20:23.872Z,90.90
2019-04-06T09:22:52.351Z,90.80
2019-04-06T09:25:20.798Z,90.10
2019-04-06T09:27:49.203Z,89.70
2019-04-06T09:30:17.748Z,89.90
2019-04-06T09:32:46.195Z,90.00
2019-04-06T09:35:14.864Z,89.80
2019-04-06T09:37:43.436Z,88.50
2019-04-06T09:40:11.927Z,88.30
2019-04-06T09:42:40.342Z,87.50
2019-04-06T09:45:13.696Z,87.50
2019-04-06T09:48:02.086Z,85.80
2019-04-06T09:50:48.390Z,85.30
2019-04-06T09:53:33.169Z,84.50
2019-04-06T09:56:11.355Z,84.30
2019-04-06T09:58:47.527Z,83.30
2019-04-06T10:01:37.977Z,81.90
2019-04-06T10:04:07.207Z,81.60
2019-04-06T10:06:53.271Z,81.40
2019-04-06T10:09:35.514Z,80.10
2019-04-06T10:12:11.642Z,79.20
2019-04-06T10:14:57.723Z,79.50
2019-04-06T10:17:44.467Z,80.10
2019-04-06T10:20:20.735Z,80.70
2019-04-06T10:22:50.867Z,81.00
2019-04-06T10:25:20.942Z,81.40
2019-04-06T10:27:57.156Z,81.30
2019-04-06T10:30:27.221Z,80.00
2019-04-06T10:33:03.189Z,79.60
2019-04-06T10:35:49.298Z,79.40
2019-04-06T10:38:22.639Z,78.80
2019-04-06T10:40:55.816Z,79.60
2019-04-06T10:43:41.291Z,79.90
2019-04-06T10:46:20.372Z,81.50
2019-04-06T10:48:50.851Z,81.60
2019-04-06T10:51:21.388Z,82.60
2019-04-06T10:53:51.961Z,83.10
2019-04-06T10:56:22.090Z,83.30
2019-04-06T10:58:52.142Z,84.50
2019-04-06T11:01:22.171Z,85.40
2019-04-06T11:03:54.987Z,85.60
2019-04-06T11:06:28.333Z,86.20
2019-04-06T11:08:58.382Z,87.50
2019-04-06T11:11:28.443Z,88.30
2019-04-06T11:14:07.663Z,87.80
2019-04-06T11:16:54.003Z,87.30
2019-04-06T11:19:36.302Z,85.90
2019-04-06T11:22:09.437Z,84.40
2019-04-06T11:24:56.277Z,82.70
2019-04-06T11:27:43.173Z,82.00
2019-04-06T11:30:22.110Z,80.90
2019-04-06T11:33:07.519Z,80.30
2019-04-06T11:35:37.664Z,79.70
2019-04-06T11:38:13.524Z,78.20
2019-04-06T11:40:46.631Z,77.70
2019-04-06T11:43:16.691Z,76.20
2019-04-06T11:45:58.579Z,75.90
2019-04-06T11:48:37.498Z,75.50
2019-04-06T11:51:19.338Z,75.80
2019-04-06T11:54:03.958Z,76.00
2019-04-06T11:56:46.114Z,76.40
2019-04-06T11:59:19.527Z,75.70
2019-04-06T12:01:49.716Z,75.60
2019-04-06T12:04:20.078Z,75.60
2019-04-06T12:06:50.306Z,75.90
2019-04-06T12:09:29.248Z,75.80
2019-04-06T12:12:02.238Z,75.60
2019-04-06T12:14:47.318Z,75.70
2019-04-06T12:17:33.721Z,75.80
2019-04-06T12:20:06.478Z,76.20
2019-04-06T12:22:42.748Z,76.40
2019-04-06T12:25:29.064Z,76.20
2019-04-06T12:28:02.218Z,76.10
2019-04-06T12:30:38.211Z,75.00
2019-04-06T12:33:04.023Z,75.50
2019-04-06T12:35:50.351Z,75.10
2019-04-06T12:38:24.920Z,74.70
2019-04-06T12:41:00.805Z,75.30
2019-04-06T12:43:46.857Z,75.20
2019-04-06T12:46:22.945Z,74.40
2019-04-06T12:48:58.789Z,74.50
2019-04-06T12:51:34.491Z,74.20
2019-04-06T12:54:07.522Z,75.10
2019-04-06T12:56:40.571Z,74.50
2019-04-06T12:59:22.979Z,74.40
2019-04-06T13:01:53.156Z,74.10
2019-04-06T13:04:23.757Z,73.60
2019-04-06T13:06:56.294Z,73.50
2019-04-06T13:09:38.858Z,73.10
2019-04-06T13:12:11.847Z,72.80
2019-04-06T13:14:45.131Z,72.70
2019-04-06T13:17:23.812Z,71.90
2019-04-06T13:19:56.630Z,71.20
2019-04-06T13:22:26.714Z,70.00
2019-04-06T13:24:56.873Z,68.90
2019-04-06T13:27:42.183Z,67.80
2019-04-06T13:30:15.390Z,67.40
2019-04-06T13:32:48.415Z,67.00
2019-04-06T13:35:18.626Z,67.10
2019-04-06T13:38:00.518Z,66.70
2019-04-06T13:40:41.454Z,65.50
2019-04-06T13:43:17.081Z,65.50
2019-04-06T13:46:03.857Z,65.30
2019-04-06T13:48:42.910Z,65.50
2019-04-06T13:51:12.956Z,64.70
2019-04-06T13:54:01.115Z,63.80
2019-04-06T13:56:49.485Z,64.40
2019-04-06T13:59:25.594Z,65.00
2019-04-06T14:01:58.494Z,65.20
2019-04-06T14:04:31.046Z,64.70
2019-04-06T14:07:12.797Z,65.50
2019-04-06T14:09:42.830Z,66.60
2019-04-06T14:12:12.951Z,68.60
2019-04-06T14:14:52.237Z,71.50
2019-04-06T14:17:39.117Z,72.20
2019-04-06T14:20:26.311Z,73.50
2019-04-06T14:22:56.417Z,75.20
2019-04-06T14:25:26.470Z,75.60
2019-04-06T14:28:13.012Z,75.40
2019-04-06T14:30:59.429Z,75.70
2019-04-06T14:33:46.137Z,76.00
2019-04-06T14:36:16.457Z,77.00
2019-04-06T14:38:49.091Z,77.60
2019-04-06T14:41:25.168Z,77.60
2019-04-06T14:43:55.610Z,77.50
2019-04-06T14:46:43.333Z,77.70
2019-04-06T14:49:31.681Z,78.30
2019-04-06T14:51:59.984Z,78.40
2019-04-06T14:54:32.503Z,77.10
2019-04-06T14:57:11.507Z,76.80
2019-04-06T14:59:44.573Z,73.80
2019-04-06T15:02:31.239Z,72.50
2019-04-06T15:05:17.870Z,71.70
2019-04-06T15:07:56.352Z,70.20
2019-04-06T15:10:43.994Z,68.60
2019-04-06T15:13:26.492Z,68.30
2019-04-06T15:15:56.652Z,67.40
2019-04-06T15:18:35.749Z,65.90
2019-04-06T15:23:44.526Z,61.70
2019-04-06T15:26:17.247Z,61.80
2019-04-06T15:28:53.020Z,61.70
2019-04-06T15:31:23.396Z,62.50
2019-04-06T15:33:56.453Z,63.60
2019-04-06T15:36:44.756Z,63.80
2019-04-06T15:39:17.812Z,62.70
2019-04-06T15:42:06.059Z,62.60
2019-04-06T15:44:36.103Z,62.60
2019-04-06T15:47:23.243Z,63.50
2019-04-06T15:49:59.028Z,64.80
2019-04-06T15:52:44.271Z,66.10
2019-04-06T15:55:23.668Z,67.50
2019-04-06T15:57:57.055Z,69.60
2019-04-06T16:00:33.371Z,71.00
2019-04-06T16:03:03.482Z,72.20
2019-04-06T16:05:48.467Z,73.30
2019-04-06T16:08:21.242Z,74.30
2019-04-06T16:10:54.069Z,74.80
2019-04-06T16:13:39.198Z,75.30
2019-04-06T16:16:15.186Z,76.00
2019-04-06T16:18:47.735Z,76.60
2019-04-06T16:21:18.004Z,77.00
2019-04-06T16:24:03.573Z,77.90
2019-04-06T16:26:29.216Z,78.70
2019-04-06T16:29:02.353Z,79.50
2019-04-06T16:31:35.349Z,80.50
2019-04-06T16:34:05.769Z,81.20
2019-04-06T16:36:52.350Z,81.90
2019-04-06T16:39:34.747Z,82.30
2019-04-06T16:42:04.794Z,82.70
2019-04-06T16:44:34.855Z,83.00
2019-04-06T16:47:21.009Z,83.20
2019-04-06T16:50:00.375Z,83.60
2019-04-06T16:52:45.599Z,84.00
2019-04-06T16:55:27.840Z,84.50
2019-04-06T16:58:14.655Z,84.80
2019-04-06T17:00:47.842Z,85.10
2019-04-06T17:03:17.998Z,85.70
2019-04-06T17:05:54.005Z,86.30
2019-04-06T17:08:33.463Z,87.00
2019-04-06T17:11:09.511Z,87.40
2019-04-06T17:13:39.587Z,88.00
2019-04-06T17:16:15.636Z,88.70
2019-04-06T17:19:02.277Z,89.60
2019-04-06T17:21:32.708Z,90.20
2019-04-06T17:24:19.044Z,90.40
2019-04-06T17:26:58.493Z,90.70
2019-04-06T17:29:29.090Z,91.10
2019-04-06T17:32:15.147Z,91.50
2019-04-06T17:34:56.055Z,91.90
2019-04-06T17:37:38.122Z,92.50
2019-04-06T17:40:25.839Z,93.00
2019-04-06T17:43:12.135Z,93.30
2019-04-06T17:45:42.607Z,93.80
2019-04-06T17:48:12.694Z,94.30
2019-04-06T17:50:58.935Z,94.70
2019-04-06T17:53:41.079Z,95.10
2019-04-06T17:56:23.051Z,95.40
2019-04-06T17:59:09.937Z,95.80
2019-04-06T18:01:40.030Z,96.10
2019-04-06T18:04:10.563Z,96.50
2019-04-06T18:06:56.874Z,96.90
2019-04-06T18:09:27.002Z,97.30
2019-04-06T18:12:00.096Z,97.60
2019-04-06T18:14:28.506Z,97.90
2019-04-06T18:16:57.138Z,98.20
2019-04-06T18:19:25.989Z,98.50
2019-04-06T18:21:54.573Z,98.80
2019-04-06T18:24:23.078Z,99.10
2019-04-06T18:26:51.930Z,99.30
2019-04-06T18:29:20.852Z,99.60
2019-04-06T18:32:05.738Z,99.70
2019-04-06T18:34:34.166Z,99.90
2019-04-06T18:37:10.101Z,99.90
2019-04-06T18:39:38.607Z,99.90
2019-04-06T18:42:07.449Z,99.90
2019-04-06T18:44:36.317Z,99.90
2019-04-06T18:47:05.038Z,99.90
2019-04-06T18:49:33.427Z,99.90
2019-04-06T18:52:02.163Z,99.90
2019-04-06T18:54:30.606Z,99.90
2019-04-06T18:56:59.061Z,99.90
2019-04-06T18:59:27.474Z,99.90
2019-04-06T19:01:56.282Z,99.90
2019-04-06T19:04:24.854Z,99.90
2019-04-06T19:06:53.431Z,99.90
2019-04-06T19:09:24.084Z,99.90
2019-04-06T19:11:55.490Z,99.90
2019-04-06T19:14:22.531Z,99.90
2019-04-06T19:16:51.437Z,99.90
2019-04-06T19:19:20.494Z,99.90
2019-04-06T19:21:49.039Z,99.90
2019-04-06T19:24:17.851Z,99.90
2019-04-06T19:26:46.717Z,99.90
2019-04-06T19:29:15.267Z,99.90
2019-04-06T19:31:43.663Z,99.90
2019-04-06T19:34:12.463Z,99.90
2019-04-06T19:36:40.999Z,99.90
2019-04-06T19:39:13.431Z,99.90
2019-04-06T19:41:42.011Z,99.90
2019-04-06T19:44:10.526Z,99.90
2019-04-06T19:46:38.990Z,99.90
2019-04-06T19:49:07.546Z,99.90
2019-04-06T19:51:36.505Z,99.90
2019-04-06T19:54:05.951Z,99.90
2019-04-06T19:56:35.122Z,99.90
2019-04-06T19:59:04.420Z,99.90
2019-04-06T20:01:33.074Z,99.90
2019-04-06T20:04:01.563Z,99.90
2019-04-06T20:06:29.949Z,99.90
2019-04-06T20:08:58.650Z,99.90
2019-04-06T20:11:27.058Z,99.90
2019-04-06T20:13:55.450Z,99.90
2019-04-06T20:16:23.851Z,99.90
2019-04-06T20:18:52.266Z,99.90
2019-04-06T20:21:20.774Z,99.90
2019-04-06T20:23:49.594Z,99.90
2019-04-06T20:26:18.462Z,99.90
2019-04-06T20:28:46.963Z,99.90
2019-04-06T20:31:15.950Z,99.90
2019-04-06T20:33:50.177Z,99.90
2019-04-06T20:36:14.654Z,99.90
2019-04-06T20:38:43.441Z,99.90
2019-04-06T20:41:12.055Z,99.90
2019-04-06T20:43:40.438Z,99.90
2019-04-06T20:46:08.826Z,99.90
2019-04-06T20:48:37.242Z,99.90
2019-04-06T20:51:06.179Z,99.90
2019-04-06T20:53:34.617Z,99.90
2019-04-06T20:56:03.012Z,99.90
2019-04-06T20:58:31.522Z,99.90
2019-04-06T21:00:59.918Z,99.90
2019-04-06T21:03:28.372Z,99.90
2019-04-06T21:05:56.771Z,99.90
2019-04-06T21:08:25.222Z,99.90
2019-04-06T21:10:53.885Z,99.90
2019-04-06T21:13:22.411Z,99.90
2019-04-06T21:15:51.006Z,99.90
2019-04-06T21:18:19.447Z,99.90
2019-04-06T21:20:48.875Z,99.90
2019-04-06T21:23:17.298Z,99.90
2019-04-06T21:25:45.731Z,99.90
2019-04-06T21:28:14.440Z,99.90
2019-04-06T21:30:43.167Z,99.90
2019-04-06T21:33:12.225Z,99.90
2019-04-06T21:35:40.674Z,99.90
2019-04-06T21:38:09.080Z,99.90
2019-04-06T21:40:37.555Z,99.90
2019-04-06T21:43:05.957Z,99.90
2019-04-06T21:45:34.470Z,99.90
2019-04-06T21:48:02.865Z,99.90
2019-04-06T21:50:31.254Z,99.90
2019-04-06T21:53:00.019Z,99.90
2019-04-06T21:55:28.506Z,99.90
2019-04-06T21:57:57.457Z,99.90
2019-04-06T22:00:43.712Z,99.90
2019-04-06T22:03:12.162Z,99.90
2019-04-06T22:05:41.061Z,99.90
2019-04-06T22:08:09.531Z,99.90
2019-04-06T22:10:38.002Z,99.90
2019-04-06T22:13:06.856Z,99.90
2019-04-06T22:15:35.266Z,99.90
2019-04-06T22:18:04.489Z,99.90
2019-04-06T22:20:33.354Z,99.90
2019-04-06T22:23:01.762Z,99.90
2019-04-06T22:25:30.163Z,99.90
2019-04-06T22:27:58.589Z,99.90
2019-04-06T22:30:27.428Z,99.90
2019-04-06T22:32:56.118Z,99.90
2019-04-06T22:35:24.774Z,99.90
2019-04-06T22:37:54.678Z,99.90
2019-04-06T22:40:23.442Z,99.90
2019-04-06T22:42:51.920Z,99.90
2019-04-06T22:45:21.962Z,99.90
2019-04-06T22:47:50.806Z,99.90
2019-04-06T22:50:19.975Z,99.90
2019-04-06T22:52:48.887Z,99.90
2019-04-06T22:55:17.731Z,99.90
2019-04-06T22:57:46.610Z,99.90
2019-04-06T23:00:18.117Z,99.90
2019-04-06T23:02:48.798Z,99.90
2019-04-06T23:05:35.020Z,99.90
2019-04-06T23:08:03.423Z,99.90
2019-04-06T23:10:31.844Z,99.90
2019-04-06T23:13:00.774Z,99.90
2019-04-06T23:15:29.279Z,99.90
2019-04-06T23:17:58.066Z,99.90
2019-04-06T23:20:26.739Z,99.90
2019-04-06T23:22:55.443Z,99.90
2019-04-06T23:25:24.398Z,99.90
2019-04-06T23:27:53.255Z,99.90
2019-04-06T23:30:21.734Z,99.90
2019-04-06T23:32:50.669Z,99.90
2019-04-06T23:35:19.595Z,99.90
2019-04-06T23:37:48.280Z,99.90
2019-04-06T23:40:16.824Z,99.90
2019-04-06T23:42:45.851Z,99.90
2019-04-06T23:45:15.122Z,99.90
2019-04-06T23:47:43.599Z,99.90
2019-04-06T23:50:12.311Z,99.90
2019-04-06T23:52:41.010Z,99.90
2019-04-06T23:55:09.722Z,99.90
2019-04-06T23:57:38.417Z,99.90
